createdAt,value
2022-11-14T00:02:27.619Z,21.9
2022-11-14T00:07:55.722Z,22
2022-11-14T00:13:34.176Z,22
2022-11-14T00:18:24.973Z,22.5
2022-11-14T00:24:03.552Z,22.4
2022-11-14T00:29:41.505Z,22.3
2022-11-14T00:35:19.644Z,22.1
2022-11-14T00:40:26.855Z,21.9
2022-11-14T00:45:49.443Z,21.9
2022-11-14T00:51:26.774Z,21.8
2022-11-14T00:57:04.703Z,21.7
2022-11-14T01:02:48.459Z,21.6
2022-11-14T01:08:25.732Z,21.6
2022-11-14T01:13:48.888Z,21.6
2022-11-14T01:19:26.046Z,21.5
2022-11-14T01:24:53.600Z,21.4
2022-11-14T01:30:31.719Z,21.4
2022-11-14T01:35:53.125Z,21.4
2022-11-14T01:41:31.651Z,21.3
2022-11-14T01:47:15.089Z,21.2
2022-11-14T01:52:52.252Z,21.2
2022-11-14T02:03:37.887Z,21.1
2022-11-14T02:09:20.658Z,21.1
2022-11-14T02:14:57.897Z,21
2022-11-14T02:20:57.436Z,20.9
2022-11-14T02:26:36.817Z,20.9
2022-11-14T02:31:58.647Z,20.8
2022-11-14T02:37:42.732Z,20.8
2022-11-14T02:43:20.703Z,20.8
2022-11-14T02:48:58.417Z,20.8
2022-11-14T02:54:36.969Z,20.7
2022-11-14T02:59:29.387Z,20.6
2022-11-14T03:04:33.022Z,20.6
2022-11-14T03:09:09.128Z,20.6
2022-11-14T03:14:47.539Z,20.6
2022-11-14T03:19:54.403Z,20.5
2022-11-14T03:25:32.452Z,20.5
2022-11-14T03:31:09.819Z,20.4
2022-11-14T03:36:47.626Z,20.4
2022-11-14T03:42:27.691Z,20.4
2022-11-14T03:48:05.290Z,20.4
2022-11-14T03:53:43.019Z,20.4
2022-11-14T03:58:50.571Z,20.4
2022-11-14T04:03:57.512Z,20.3
2022-11-14T04:09:36.496Z,20.3
2022-11-14T04:15:19.094Z,20.3
2022-11-14T04:21:00.840Z,20.3
2022-11-14T04:26:08.584Z,20.2
2022-11-14T04:31:46.430Z,20.1
2022-11-14T04:37:08.826Z,20.3
2022-11-14T04:42:48.131Z,20.3
2022-11-14T04:48:26.430Z,20.3
2022-11-14T04:53:48.061Z,20.1
2022-11-14T04:59:10.194Z,20.1
2022-11-14T05:04:38.668Z,20
2022-11-14T05:10:16.447Z,20
2022-11-14T05:15:42.686Z,20
2022-11-14T05:21:19.198Z,19.9
2022-11-14T05:26:45.134Z,19.9
2022-11-14T05:31:51.504Z,19.8
2022-11-14T05:37:17.393Z,19.8
2022-11-14T05:42:08.290Z,19.7
2022-11-14T05:47:45.759Z,19.7
2022-11-14T05:53:23.664Z,19.7
2022-11-14T05:59:06.623Z,19.7
2022-11-14T06:04:36.163Z,19.7
2022-11-14T06:10:14.703Z,19.8
2022-11-14T06:15:52.630Z,19.8
2022-11-14T06:21:31.124Z,19.8
2022-11-14T06:27:08.199Z,19.8
2022-11-14T06:32:49.750Z,19.7
2022-11-14T06:38:27.441Z,19.7
2022-11-14T06:44:05.295Z,19.7
2022-11-14T06:49:18.516Z,19.7
2022-11-14T06:55:01.012Z,19.7
2022-11-14T07:00:30.294Z,19.6
2022-11-14T07:05:52.248Z,19.6
2022-11-14T07:11:14.655Z,19.6
2022-11-14T07:16:35.415Z,19.6
2022-11-14T07:22:02.553Z,19.6
2022-11-14T07:27:24.775Z,19.6
2022-11-14T07:32:52.113Z,19.6
2022-11-14T07:38:14.002Z,19.6
2022-11-14T07:43:36.773Z,19.6
2022-11-14T07:48:59.153Z,19.6
2022-11-14T07:54:20.800Z,19.6
2022-11-14T07:59:46.755Z,19.6
2022-11-14T08:05:25.741Z,19.6
2022-11-14T08:10:51.073Z,19.5
2022-11-14T08:16:51.424Z,19.5
2022-11-14T08:22:14.181Z,19.5
2022-11-14T08:27:57.080Z,19.5
2022-11-14T08:33:24.555Z,19.5
2022-11-14T08:39:04.062Z,19.5
2022-11-14T08:44:41.481Z,19.5
2022-11-14T08:50:19.269Z,19.5
2022-11-14T08:55:58.656Z,19.5
2022-11-14T09:01:37.433Z,19.4
2022-11-14T09:07:21.152Z,19.4
2022-11-14T09:13:02.169Z,19.4
2022-11-14T09:18:46.093Z,19.4
2022-11-14T09:24:35.689Z,19.4
2022-11-14T09:30:17.349Z,19.4
2022-11-14T09:35:58.886Z,19.4
2022-11-14T09:41:41.925Z,19.2
2022-11-14T09:47:24.601Z,19.4
2022-11-14T09:53:07.960Z,19.4
2022-11-14T09:58:46.999Z,19.4
2022-11-14T10:04:14.847Z,19.4
2022-11-14T10:09:53.998Z,19.4
2022-11-14T10:15:17.005Z,19.4
2022-11-14T10:20:56.222Z,19.4
2022-11-14T10:26:35.069Z,19.4
2022-11-14T10:32:18.664Z,19.4
2022-11-14T10:38:04.470Z,19.4
2022-11-14T10:44:11.901Z,19.4
2022-11-14T10:49:38.045Z,17.8
2022-11-14T10:55:15.915Z,17.1
2022-11-14T11:01:34.366Z,17.3
2022-11-14T11:08:41.781Z,18.3
2022-11-14T11:25:18.292Z,18.6
2022-11-14T11:30:56.649Z,18.6
2022-11-14T11:36:35.492Z,18.6
2022-11-14T11:54:42.152Z,18.8
2022-11-14T12:00:10.172Z,18.8
2022-11-14T12:05:54.889Z,18.8
2022-11-14T12:12:08.692Z,18.8
2022-11-14T12:17:53.118Z,18.8
2022-11-14T12:23:38.379Z,18.8
2022-11-14T12:29:21.180Z,18.8
2022-11-14T12:35:01.813Z,18.8
2022-11-14T12:40:42.748Z,18.9
2022-11-14T12:46:24.157Z,18.9
2022-11-14T12:52:04.470Z,18.9
2022-11-14T12:57:45.024Z,18.9
2022-11-14T13:03:29.404Z,19
2022-11-14T13:08:41.612Z,19
2022-11-14T13:14:05.026Z,19
2022-11-14T13:19:47.955Z,19.1
2022-11-14T13:25:12.531Z,19.1
2022-11-14T13:31:28.839Z,19.1
2022-11-14T13:37:12.439Z,19
2022-11-14T13:42:55.311Z,19
2022-11-14T13:48:34.098Z,19
2022-11-14T13:54:40.467Z,19
2022-11-14T14:00:21.009Z,18.9
2022-11-14T14:06:05.216Z,19
2022-11-14T14:11:44.180Z,18.9
2022-11-14T14:17:22.424Z,18.9
2022-11-14T14:23:07.365Z,18.9
2022-11-14T14:28:46.418Z,19
2022-11-14T14:34:28.648Z,18.8
2022-11-14T14:40:12.422Z,18.9
2022-11-14T14:45:55.441Z,18.9
2022-11-14T14:51:34.389Z,18.9
2022-11-14T14:57:17.046Z,18.9
2022-11-14T15:02:39.662Z,19
2022-11-14T15:08:24.203Z,19
2022-11-14T15:14:02.567Z,19.1
2022-11-14T15:19:47.508Z,19.1
2022-11-14T15:25:25.854Z,19
2022-11-14T15:30:48.673Z,18.9
2022-11-14T15:36:32.090Z,19
2022-11-14T15:42:40.756Z,19
2022-11-14T15:48:18.887Z,19
2022-11-14T15:53:57.159Z,19
2022-11-14T16:00:01.491Z,19.1
2022-11-14T16:05:39.445Z,19.1
2022-11-14T16:11:02.787Z,19.1
2022-11-14T16:16:31.199Z,19.1
2022-11-14T16:21:53.425Z,19.2
2022-11-14T16:27:20.186Z,19.1
2022-11-14T16:32:42.771Z,19.2
2022-11-14T16:38:05.018Z,19.2
2022-11-14T16:43:43.343Z,19.2
2022-11-14T16:48:57.850Z,19.1
2022-11-14T16:54:34.430Z,21
2022-11-14T17:00:11.781Z,23.4
2022-11-14T17:05:37.029Z,23.2
2022-11-14T17:11:05.684Z,23.6
2022-11-14T17:16:45.221Z,23.5
2022-11-14T17:22:07.531Z,23.6
2022-11-14T17:27:35.099Z,23.8
2022-11-14T17:32:45.476Z,24.6
2022-11-14T17:38:07.715Z,24.9
2022-11-14T17:43:44.962Z,25.8
2022-11-14T17:49:22.382Z,26.3
2022-11-14T17:54:50.007Z,26.9
2022-11-14T18:00:33.521Z,27.1
2022-11-14T18:06:02.306Z,26.8
2022-11-14T18:11:44.201Z,26.6
2022-11-14T18:17:39.418Z,25.9
2022-11-14T18:23:17.869Z,26.5
2022-11-14T18:28:55.617Z,27.5
2022-11-14T18:34:56.336Z,28.3
2022-11-14T18:40:18.094Z,29.9
2022-11-14T18:45:45.965Z,30.5
2022-11-14T18:51:09.495Z,31.3
2022-11-14T18:56:22.626Z,31.1
2022-11-14T19:02:01.489Z,30.3
2022-11-14T19:07:24.367Z,29.3
2022-11-14T19:13:08.610Z,28.9
2022-11-14T19:18:46.371Z,28.5
2022-11-14T19:24:28.766Z,29
2022-11-14T19:30:08.895Z,28.4
2022-11-14T19:35:37.774Z,27.9
2022-11-14T19:41:31.699Z,27.9
2022-11-14T19:47:10.094Z,27.6
2022-11-14T19:52:35.530Z,27.3
2022-11-14T19:58:13.675Z,27.3
2022-11-14T20:03:55.977Z,26.8
2022-11-14T20:09:34.662Z,26.7
2022-11-14T20:15:00.004Z,26.7
2022-11-14T20:20:24.231Z,26.4
2022-11-14T20:25:46.918Z,25.4
2022-11-14T20:31:15.273Z,25.3
2022-11-14T20:37:26.412Z,25.8
2022-11-14T20:42:54.908Z,25.9
2022-11-14T20:48:18.854Z,26.3
2022-11-14T20:53:41.205Z,26.5
2022-11-14T20:59:24.996Z,26.6
2022-11-14T21:05:04.096Z,26.3
2022-11-14T21:10:42.254Z,26.1
2022-11-14T21:16:19.609Z,26.2
2022-11-14T21:21:56.802Z,26.1
2022-11-14T21:27:24.959Z,26.1
2022-11-14T21:32:48.049Z,26.5
2022-11-14T21:39:00.589Z,25.9
2022-11-14T21:44:43.819Z,26.7
2022-11-14T21:50:21.854Z,27
2022-11-14T21:55:29.362Z,27
2022-11-14T22:00:53.458Z,26.4
2022-11-14T22:06:35.094Z,26.4
2022-11-14T22:12:14.820Z,26.3
2022-11-14T22:17:53.582Z,26
2022-11-14T22:23:21.222Z,25.9
2022-11-14T22:28:27.393Z,26.1
2022-11-14T22:34:04.871Z,25.9
2022-11-14T22:39:43.288Z,26.1
2022-11-14T22:45:27.057Z,25.8
2022-11-14T22:51:04.258Z,25.6
2022-11-14T22:55:55.260Z,24.9
2022-11-14T23:01:32.878Z,25.2
2022-11-14T23:07:17.677Z,25.7
2022-11-14T23:12:55.995Z,25.7
2022-11-14T23:18:33.989Z,25.7
2022-11-14T23:23:58.261Z,25.4
2022-11-14T23:29:35.996Z,25.2
2022-11-14T23:35:13.610Z,24.9
2022-11-14T23:40:50.905Z,24.7
2022-11-14T23:46:27.828Z,24.6
2022-11-14T23:51:49.989Z,24.5
2022-11-14T23:57:27.188Z,24.4
